Time;durP1;ratioP1;P1;durP2;ratioP2;P2;SDS_P1;SDS_P2;PMS_P1;PMS_P2;Temp;Humidity;BMP_temperature;BMP_pressure;BME280_temperature;BME280_humidity;BME280_pressure;Samples;Min_cycle;Max_cycle;Signal;HPM_P1;HPM_P2
2021/12/13 00:00:45;;;;;;;0.98;0.82;;;17.10;49.10;;;;;;5096250;28;20057;-54
2021/12/13 00:03:31;;;;;;;1.00;0.70;;;17.10;49.10;;;;;;5113802;28;20015;-52
2021/12/13 00:06:08;;;;;;;0.70;0.63;;;17.10;49.10;;;;;;5112786;28;20054;-53
2021/12/13 00:08:35;;;;;;;1.30;0.90;;;17.10;49.10;;;;;;5113422;28;20046;-54
2021/12/13 00:11:08;;;;;;;0.73;0.70;;;17.10;49.20;;;;;;5114349;28;20027;-52
2021/12/13 00:13:58;;;;;;;0.73;0.68;;;17.10;49.10;;;;;;5114470;28;20016;-53
2021/12/13 00:16:26;;;;;;;1.42;0.90;;;17.10;49.70;;;;;;5096357;28;20015;-52
2021/12/13 00:18:59;;;;;;;0.95;0.70;;;17.10;49.20;;;;;;5114190;28;20020;-54
2021/12/13 00:21:33;;;;;;;0.80;0.60;;;17.10;49.20;;;;;;5114573;28;20101;-53
2021/12/13 00:24:01;;;;;;;0.95;0.85;;;17.10;49.10;;;;;;5114601;28;20012;-53
2021/12/13 00:26:40;;;;;;;0.70;0.70;;;17.10;49.10;;;;;;5113839;28;20032;-51
2021/12/13 00:29:14;;;;;;;0.70;0.65;;;17.10;49.20;;;;;;5095844;28;20497;-53
2021/12/13 00:31:44;;;;;;;1.15;0.75;;;17.10;49.20;;;;;;5095194;28;20016;-54
2021/12/13 00:34:30;;;;;;;1.45;0.80;;;17.10;49.20;;;;;;5113597;28;20030;-53
2021/12/13 00:37:22;;;;;;;0.75;0.70;;;17.10;49.20;;;;;;5095051;28;20445;-53
2021/12/13 00:40:01;;;;;;;1.20;0.80;;;17.10;49.10;;;;;;5108548;28;20043;-50
2021/12/13 00:42:44;;;;;;;0.90;0.60;;;17.10;49.10;;;;;;5113377;28;20028;-51
2021/12/13 00:45:11;;;;;;;1.00;0.60;;;17.10;49.10;;;;;;5113047;28;20460;-53
2021/12/13 00:47:39;;;;;;;0.60;0.60;;;17.10;49.10;;;;;;5095163;28;20027;-52
2021/12/13 00:50:38;;;;;;;0.82;0.77;;;17.10;49.10;;;;;;5094782;28;20012;-51
2021/12/13 00:53:04;;;;;;;0.80;0.70;;;17.10;49.20;;;;;;5113327;28;20669;-53
2021/12/13 00:55:31;;;;;;;0.93;0.75;;;17.10;49.20;;;;;;5095391;28;20012;-52
2021/12/13 00:58:03;;;;;;;0.82;0.70;;;17.10;49.10;;;;;;5113104;28;20542;-53
2021/12/13 01:00:32;;;;;;;0.80;0.80;;;17.10;49.10;;;;;;5095165;28;20016;-51
2021/12/13 01:03:03;;;;;;;1.10;0.68;;;17.10;49.20;;;;;;5094568;28;20012;-52
2021/12/13 01:05:47;;;;;;;0.90;0.73;;;17.10;49.20;;;;;;5113111;28;20072;-53
2021/12/13 01:08:14;;;;;;;0.70;0.68;;;17.20;49.20;;;;;;5112725;28;20050;-53
2021/12/13 01:11:13;;;;;;;1.08;0.90;;;17.10;49.20;;;;;;5112970;28;20011;-54
2021/12/13 01:13:53;;;;;;;0.73;0.73;;;17.20;49.20;;;;;;5113012;28;20016;-52
2021/12/13 01:17:09;;;;;;;0.88;0.57;;;17.10;49.10;;;;;;5112632;28;20029;-53
2021/12/13 01:19:53;;;;;;;0.80;0.75;;;17.20;49.20;;;;;;5104457;28;20119;-53
2021/12/13 01:22:47;;;;;;;0.60;0.60;;;17.10;49.20;;;;;;5107894;28;20019;-51
2021/12/13 01:25:43;;;;;;;0.88;0.80;;;17.10;49.20;;;;;;5116559;28;20064;-51
2021/12/13 01:28:19;;;;;;;1.42;1.08;;;17.10;49.20;;;;;;5116992;28;20068;-53
2021/12/13 01:30:50;;;;;;;0.60;0.60;;;17.20;49.20;;;;;;5116494;28;20019;-52
2021/12/13 01:33:16;;;;;;;1.15;0.80;;;17.20;49.20;;;;;;5116537;28;20007;-53
2021/12/13 01:35:43;;;;;;;0.90;0.60;;;17.20;49.20;;;;;;5116918;28;20043;-53
2021/12/13 01:38:21;;;;;;;0.77;0.70;;;17.10;49.10;;;;;;5116720;28;20030;-50
2021/12/13 01:40:52;;;;;;;0.70;0.70;;;17.20;49.20;;;;;;5116177;28;20047;-53
2021/12/13 01:43:22;;;;;;;1.42;0.85;;;17.20;49.10;;;;;;5116796;28;20016;-53
2021/12/13 01:45:48;;;;;;;1.13;0.80;;;17.20;49.20;;;;;;5116577;28;20057;-50
2021/12/13 01:48:41;;;;;;;1.02;0.60;;;17.20;49.20;;;;;;5116827;28;20119;-51
2021/12/13 01:51:11;;;;;;;1.10;0.90;;;17.20;49.20;;;;;;5112614;28;20031;-50
2021/12/13 01:53:59;;;;;;;1.13;0.90;;;17.20;49.20;;;;;;5116540;28;20035;-54
2021/12/13 01:56:39;;;;;;;0.88;0.73;;;17.20;49.20;;;;;;5116433;28;20042;-53
2021/12/13 02:02:11;;;;;;;0.57;0.57;;;17.20;49.20;;;;;;5116378;28;20023;-53
2021/12/13 02:04:37;;;;;;;0.90;0.80;;;17.20;49.20;;;;;;5116465;28;20026;-53
2021/12/13 02:07:04;;;;;;;0.80;0.75;;;17.20;49.20;;;;;;5097735;28;20012;-49
2021/12/13 02:09:36;;;;;;;1.17;0.70;;;17.20;49.20;;;;;;5097473;28;20067;-52
2021/12/13 02:12:11;;;;;;;1.35;0.70;;;17.20;49.20;;;;;;5098979;28;20454;-54
2021/12/13 02:14:37;;;;;;;1.25;0.85;;;17.20;49.10;;;;;;5115683;28;20483;-53
2021/12/13 02:17:13;;;;;;;0.80;0.63;;;17.20;49.20;;;;;;5080700;28;20016;-53
2021/12/13 02:19:50;;;;;;;0.68;0.60;;;17.20;49.40;;;;;;5115796;28;20027;-50
2021/12/13 02:22:22;;;;;;;0.90;0.80;;;17.20;49.10;;;;;;5096930;28;20389;-53
2021/12/13 02:24:48;;;;;;;1.13;0.60;;;17.20;49.10;;;;;;5115114;28;20458;-51
2021/12/13 02:27:14;;;;;;;1.88;0.80;;;17.20;49.20;;;;;;5115395;28;20031;-50
2021/12/13 02:29:42;;;;;;;0.73;0.73;;;17.20;49.20;;;;;;5096923;28;20012;-54
2021/12/13 02:32:09;;;;;;;0.90;0.68;;;17.20;49.20;;;;;;5097611;28;20020;-52
2021/12/13 02:34:37;;;;;;;0.52;0.52;;;17.20;49.20;;;;;;5115177;28;20012;-49
2021/12/13 02:37:03;;;;;;;0.70;0.70;;;17.20;49.20;;;;;;5114846;28;20024;-54
2021/12/13 02:39:34;;;;;;;1.23;0.70;;;17.20;49.20;;;;;;5096734;28;20032;-52
2021/12/13 02:42:01;;;;;;;0.88;0.65;;;17.20;49.20;;;;;;5115352;28;20097;-52
2021/12/13 02:44:28;;;;;;;0.82;0.70;;;17.20;49.20;;;;;;5114971;28;20003;-53
2021/12/13 02:46:55;;;;;;;0.80;0.80;;;17.20;49.20;;;;;;5114686;28;20018;-54
2021/12/13 02:49:22;;;;;;;0.77;0.70;;;17.20;49.20;;;;;;5115189;28;20020;-53
2021/12/13 02:52:00;;;;;;;0.90;0.80;;;17.30;49.20;;;;;;5097059;28;20110;-53
2021/12/13 02:54:38;;;;;;;0.93;0.77;;;17.20;49.20;;;;;;5114613;28;20034;-55
2021/12/13 02:57:11;;;;;;;0.80;0.70;;;17.30;49.20;;;;;;5114352;28;20007;-51
2021/12/13 02:59:37;;;;;;;1.10;1.00;;;17.30;49.20;;;;;;5114587;28;20110;-52
2021/12/13 03:02:11;;;;;;;0.82;0.77;;;17.30;49.10;;;;;;5079373;28;20008;-52
2021/12/13 03:04:37;;;;;;;0.60;0.60;;;17.30;49.20;;;;;;5114599;28;20018;-51
2021/12/13 03:07:23;;;;;;;0.85;0.70;;;17.20;49.10;;;;;;5114399;28;20038;-50
2021/12/13 03:09:51;;;;;;;0.70;0.70;;;17.30;49.20;;;;;;5114148;28;20104;-51
2021/12/13 03:12:17;;;;;;;0.70;0.60;;;17.20;49.20;;;;;;5114618;28;20027;-52
2021/12/13 03:14:53;;;;;;;0.98;0.90;;;17.30;49.20;;;;;;5114550;28;20088;-53
2021/12/13 03:17:25;;;;;;;1.23;0.90;;;17.30;49.20;;;;;;5096780;28;20022;-52
2021/12/13 03:20:26;;;;;;;0.80;0.70;;;17.30;49.20;;;;;;5114653;28;20076;-49
2021/12/13 03:23:03;;;;;;;0.77;0.65;;;17.20;49.20;;;;;;5055351;28;20024;-52
2021/12/13 03:26:26;;;;;;;1.13;0.93;;;17.30;49.30;;;;;;5114466;28;20012;-49
2021/12/13 03:28:58;;;;;;;0.70;0.70;;;17.30;49.20;;;;;;5011648;28;20117;-52
2021/12/13 03:31:26;;;;;;;0.80;0.80;;;17.30;49.30;;;;;;5011477;28;20358;-51
2021/12/13 03:33:58;;;;;;;0.77;0.70;;;17.30;49.30;;;;;;5011482;28;20445;-50
2021/12/13 03:36:59;;;;;;;0.63;0.60;;;17.20;49.20;;;;;;5011455;28;20022;-51
2021/12/13 03:39:31;;;;;;;0.47;0.47;;;17.30;49.30;;;;;;5011380;28;20038;-51
2021/12/13 03:41:58;;;;;;;0.98;0.80;;;17.30;49.30;;;;;;5010919;28;20014;-53
2021/12/13 03:44:29;;;;;;;0.80;0.75;;;17.30;49.30;;;;;;4994948;28;20026;-52
2021/12/13 03:46:56;;;;;;;0.60;0.60;;;17.30;49.40;;;;;;5011633;28;20037;-52
2021/12/13 03:49:22;;;;;;;0.82;0.60;;;17.20;49.20;;;;;;5011403;28;20041;-52
2021/12/13 03:51:50;;;;;;;0.70;0.65;;;17.30;49.30;;;;;;5011170;28;20492;-52
2021/12/13 03:54:16;;;;;;;0.73;0.68;;;17.30;49.30;;;;;;4994978;28;20038;-51
2021/12/13 03:56:45;;;;;;;0.88;0.82;;;17.30;49.20;;;;;;5011273;28;20036;-51
2021/12/13 03:59:13;;;;;;;0.75;0.60;;;17.30;49.20;;;;;;5044142;28;20035;-52
2021/12/13 04:02:08;;;;;;;0.98;0.73;;;17.30;49.20;;;;;;5113422;28;20454;-51
2021/12/13 04:04:42;;;;;;;0.82;0.70;;;17.30;49.30;;;;;;5116346;28;20042;-51
2021/12/13 04:07:16;;;;;;;0.75;0.70;;;17.30;49.30;;;;;;5114676;28;20007;-51
2021/12/13 04:09:43;;;;;;;0.80;0.70;;;17.30;49.20;;;;;;5113572;28;20096;-52
2021/12/13 04:12:09;;;;;;;1.85;0.70;;;17.30;49.30;;;;;;5113509;28;20076;-49
2021/12/13 04:14:40;;;;;;;0.75;0.65;;;17.40;49.20;;;;;;5113507;28;20492;-50
2021/12/13 04:20:24;;;;;;;0.68;0.68;;;17.50;49.10;;;;;;5070878;28;20052;-50
2021/12/13 04:22:52;;;;;;;1.00;0.60;;;17.50;48.80;;;;;;5053892;28;20013;-51
2021/12/13 04:25:24;;;;;;;5.47;0.90;;;17.60;48.70;;;;;;5070787;28;20115;-50
2021/12/13 04:27:56;;;;;;;;;;;17.70;48.60;;;;;;5071484;28;20104;-52
2021/12/13 04:30:29;;;;;;;1.15;0.60;;;17.70;48.40;;;;;;5070973;28;19907;-49
2021/12/13 04:32:58;;;;;;;0.82;0.68;;;17.80;48.30;;;;;;5070870;28;20043;-52
2021/12/13 04:35:24;;;;;;;0.70;0.70;;;17.90;48.20;;;;;;5070873;28;20016;-52
2021/12/13 04:37:52;;;;;;;0.77;0.60;;;18.00;47.90;;;;;;5070568;28;20531;-52
2021/12/13 04:40:24;;;;;;;0.75;0.50;;;18.00;47.80;;;;;;5054180;28;20023;-50
2021/12/13 04:43:01;;;;;;;0.43;0.43;;;18.10;47.60;;;;;;5053584;28;20055;-49
2021/12/13 04:45:27;;;;;;;0.73;0.60;;;18.20;47.40;;;;;;5054333;28;20017;-49
2021/12/13 04:48:11;;;;;;;0.60;0.60;;;18.30;47.20;;;;;;5053984;28;20058;-50
2021/12/13 04:50:51;;;;;;;0.85;0.80;;;18.40;47.00;;;;;;5070328;28;20063;-50
2021/12/13 04:53:24;;;;;;;1.30;0.82;;;18.50;46.90;;;;;;5071754;28;20024;-48
2021/12/13 04:55:49;;;;;;;0.60;0.52;;;18.60;46.70;;;;;;5074079;28;20020;-50
2021/12/13 04:58:18;;;;;;;0.52;0.52;;;18.70;46.50;;;;;;5081688;28;20381;-48
2021/12/13 05:00:48;;;;;;;1.25;0.70;;;18.70;46.30;;;;;;5116866;28;20061;-48
2021/12/13 05:03:15;;;;;;;0.82;0.60;;;18.80;46.20;;;;;;5116772;28;20351;-49
2021/12/13 05:05:41;;;;;;;0.70;0.65;;;18.90;46.00;;;;;;5098939;28;20061;-50
2021/12/13 05:08:13;;;;;;;0.70;0.68;;;19.00;45.90;;;;;;5117085;28;20088;-49
2021/12/13 05:10:40;;;;;;;0.93;0.60;;;19.10;45.80;;;;;;5116831;28;20090;-53
2021/12/13 05:13:12;;;;;;;0.50;0.50;;;19.10;45.60;;;;;;5098713;28;20454;-49
2021/12/13 05:15:40;;;;;;;0.93;0.70;;;19.20;45.50;;;;;;5116640;28;20040;-50
2021/12/13 05:18:10;;;;;;;1.40;0.70;;;19.20;45.40;;;;;;5116369;28;20024;-48
2021/12/13 05:20:38;;;;;;;0.82;0.80;;;19.30;45.20;;;;;;5116291;28;20023;-52
2021/12/13 05:23:09;;;;;;;0.80;0.73;;;19.40;45.10;;;;;;5116373;28;20012;-52
2021/12/13 05:25:54;;;;;;;0.60;0.60;;;19.50;45.10;;;;;;5116566;28;20019;-50
2021/12/13 05:28:28;;;;;;;0.60;0.60;;;19.60;44.90;;;;;;5116478;28;20014;-50
2021/12/13 05:30:58;;;;;;;0.65;0.65;;;19.60;44.80;;;;;;5116737;28;20058;-49
2021/12/13 05:33:27;;;;;;;0.70;0.70;;;19.70;44.70;;;;;;5116365;28;20027;-49
2021/12/13 05:35:54;;;;;;;0.77;0.60;;;19.70;44.60;;;;;;5116691;28;20015;-51
2021/12/13 05:38:33;;;;;;;0.60;0.60;;;19.80;44.50;;;;;;5116298;28;20020;-52
2021/12/13 05:41:05;;;;;;;0.90;0.70;;;19.80;44.40;;;;;;5116443;28;20068;-52
2021/12/13 05:43:34;;;;;;;0.77;0.60;;;19.80;44.30;;;;;;5116060;28;20008;-53
2021/12/13 05:46:01;;;;;;;0.70;0.70;;;19.90;44.30;;;;;;5116615;28;20022;-53
2021/12/13 05:48:46;;;;;;;1.08;0.77;;;20.00;44.30;;;;;;5116152;28;20019;-51
2021/12/13 05:51:32;;;;;;;1.00;0.80;;;20.00;44.20;;;;;;5116133;28;20088;-52
2021/12/13 05:54:12;;;;;;;0.60;0.60;;;20.00;44.20;;;;;;5116067;28;20019;-53
2021/12/13 05:57:04;;;;;;;0.80;0.70;;;20.10;44.20;;;;;;5116021;28;20019;-53
2021/12/13 05:59:32;;;;;;;0.77;0.68;;;20.10;44.10;;;;;;5116002;28;20020;-52
2021/12/13 06:02:17;;;;;;;0.75;0.70;;;20.10;44.10;;;;;;5115760;28;20564;-51
2021/12/13 06:04:55;;;;;;;0.70;0.70;;;20.20;44.10;;;;;;5115595;28;20008;-53
2021/12/13 06:07:24;;;;;;;0.60;0.60;;;20.20;44.00;;;;;;5115889;28;20015;-52
2021/12/13 06:09:55;;;;;;;0.60;0.60;;;20.20;43.90;;;;;;5115442;28;20428;-52
2021/12/13 06:12:51;;;;;;;0.65;0.65;;;20.20;43.90;;;;;;5115483;28;20466;-51
2021/12/13 06:15:17;;;;;;;0.60;0.60;;;20.30;43.90;;;;;;5114550;28;20590;-50
2021/12/13 06:17:56;;;;;;;0.70;0.60;;;20.30;43.80;;;;;;5116359;28;20049;-52
2021/12/13 06:20:34;;;;;;;0.80;0.80;;;20.40;43.80;;;;;;5115503;28;20457;-51
2021/12/13 06:23:11;;;;;;;1.20;0.60;;;20.40;43.80;;;;;;5096962;28;20061;-51
2021/12/13 06:25:37;;;;;;;0.75;0.50;;;20.40;43.70;;;;;;5115088;28;20027;-51
2021/12/13 06:28:03;;;;;;;0.70;0.70;;;20.50;43.80;;;;;;5096898;28;20072;-52
2021/12/13 06:30:33;;;;;;;0.73;0.70;;;20.50;43.80;;;;;;5115264;28;20012;-51
2021/12/13 06:33:01;;;;;;;0.82;0.60;;;20.50;43.80;;;;;;5114987;28;20083;-51
2021/12/13 06:35:36;;;;;;;0.82;0.70;;;20.50;43.70;;;;;;5114894;28;20531;-50
2021/12/13 06:38:20;;;;;;;0.60;0.60;;;20.50;43.60;;;;;;5115206;28;20031;-53
2021/12/13 06:40:58;;;;;;;0.50;0.50;;;20.50;43.60;;;;;;5114870;28;20092;-49
2021/12/13 06:43:32;;;;;;;0.73;0.70;;;20.60;43.60;;;;;;5097582;28;20008;-49
2021/12/13 06:45:58;;;;;;;0.80;0.70;;;20.60;43.60;;;;;;5096561;28;20016;-50
2021/12/13 06:48:44;;;;;;;0.93;0.70;;;20.60;43.60;;;;;;5115087;28;20007;-52
2021/12/13 06:51:13;;;;;;;1.95;0.80;;;20.60;43.50;;;;;;5114531;28;20031;-52
2021/12/13 06:53:39;;;;;;;0.90;0.75;;;20.70;43.50;;;;;;5079119;28;20016;-52
2021/12/13 06:56:22;;;;;;;1.10;0.60;;;20.70;43.50;;;;;;5114443;28;20077;-52
2021/12/13 06:58:52;;;;;;;0.60;0.60;;;20.70;43.50;;;;;;5114017;28;20504;-50
2021/12/13 07:01:18;;;;;;;0.60;0.60;;;20.70;43.50;;;;;;5114450;28;20016;-52
2021/12/13 07:03:56;;;;;;;0.60;0.60;;;20.70;43.50;;;;;;5114218;28;20091;-52
2021/12/13 07:06:22;;;;;;;0.55;0.55;;;20.70;43.60;;;;;;5095347;28;20015;-52
2021/12/13 07:09:23;;;;;;;0.65;0.50;;;20.80;43.50;;;;;;5113031;28;20058;-51
2021/12/13 07:11:53;;;;;;;0.55;0.55;;;20.80;43.50;;;;;;5099797;28;20130;-52
2021/12/13 07:14:21;;;;;;;0.85;0.68;;;20.80;43.60;;;;;;5094882;28;20524;-52
2021/12/13 07:16:52;;;;;;;1.15;0.70;;;20.80;43.50;;;;;;5094266;28;20019;-51
2021/12/13 07:19:24;;;;;;;0.60;0.60;;;20.90;43.40;;;;;;5112293;28;20030;-51
2021/12/13 07:22:10;;;;;;;0.60;0.60;;;20.90;43.50;;;;;;5093236;28;20090;-52
2021/12/13 07:24:46;;;;;;;0.60;0.60;;;20.90;43.50;;;;;;5111297;28;20047;-52
2021/12/13 07:27:33;;;;;;;0.60;0.60;;;20.90;43.50;;;;;;5077947;28;20083;-52
2021/12/13 07:30:09;;;;;;;0.80;0.52;;;20.90;43.40;;;;;;5113227;28;20016;-49
2021/12/13 07:32:39;;;;;;;0.80;0.65;;;20.90;43.40;;;;;;5096896;28;20043;-50
2021/12/13 07:35:08;;;;;;;0.85;0.77;;;20.90;43.40;;;;;;5113590;28;20184;-49
2021/12/13 07:37:45;;;;;;;1.10;0.63;;;20.90;43.40;;;;;;5112931;28;20031;-52
2021/12/13 07:40:22;;;;;;;1.17;0.70;;;21.00;43.50;;;;;;5112831;28;20378;-52
2021/12/13 07:42:52;;;;;;;0.65;0.65;;;21.00;43.40;;;;;;5113027;28;20016;-57
2021/12/13 07:45:23;;;;;;;0.70;0.65;;;21.10;43.40;;;;;;5112773;28;20049;-53
2021/12/13 07:47:49;;;;;;;0.82;0.77;;;21.00;43.40;;;;;;5094304;28;20458;-51
2021/12/13 07:50:15;;;;;;;0.55;0.50;;;21.10;43.40;;;;;;5094542;28;20019;-52
2021/12/13 07:52:41;;;;;;;0.63;0.63;;;21.10;43.40;;;;;;5112521;28;20037;-54
2021/12/13 07:55:14;;;;;;;0.93;0.65;;;21.10;43.40;;;;;;5094278;28;20027;-52
2021/12/13 07:57:40;;;;;;;1.02;0.60;;;21.10;43.30;;;;;;5112603;28;20143;-48
2021/12/13 08:00:19;;;;;;;0.50;0.50;;;21.10;43.30;;;;;;5112751;28;20107;-51
2021/12/13 08:03:05;;;;;;;0.85;0.60;;;21.10;43.30;;;;;;5093842;28;20056;-49
2021/12/13 08:05:38;;;;;;;0.80;0.80;;;21.10;43.40;;;;;;5112840;28;20016;-49
2021/12/13 08:08:05;;;;;;;0.90;0.80;;;21.20;43.50;;;;;;5112620;28;20015;-48
2021/12/13 08:10:34;;;;;;;0.60;0.60;;;21.20;43.40;;;;;;5094238;28;20020;-52
2021/12/13 08:13:07;;;;;;;0.60;0.60;;;21.20;43.40;;;;;;5112311;28;20019;-49
2021/12/13 08:15:41;;;;;;;0.60;0.60;;;21.20;43.40;;;;;;5112075;28;20043;-51
2021/12/13 08:18:40;;;;;;;1.25;0.70;;;21.20;43.40;;;;;;5094014;28;20489;-52
2021/12/13 08:21:20;;;;;;;0.80;0.60;;;21.30;43.40;;;;;;5093841;28;20020;-51
2021/12/13 08:23:51;;;;;;;0.70;0.55;;;21.30;43.40;;;;;;5112109;28;20024;-50
2021/12/13 08:26:37;;;;;;;;;;;21.30;43.40;;;;;;5094249;28;20023;-53
2021/12/13 08:29:19;;;;;;;0.60;0.60;;;21.30;43.30;;;;;;5096911;28;19904;-52
2021/12/13 08:31:46;;;;;;;0.80;0.65;;;21.30;43.30;;;;;;5116416;28;20031;-51
2021/12/13 08:34:15;;;;;;;0.82;0.60;;;21.30;43.40;;;;;;5116084;28;20069;-52
2021/12/13 08:36:46;;;;;;;0.65;0.60;;;21.30;43.30;;;;;;5115856;28;20042;-49
2021/12/13 08:39:29;;;;;;;0.57;0.57;;;21.30;43.30;;;;;;5116317;28;20021;-53
2021/12/13 08:41:59;;;;;;;0.55;0.55;;;21.40;43.30;;;;;;5115885;28;20018;-50
2021/12/13 08:44:40;;;;;;;0.70;0.70;;;21.40;43.30;;;;;;5116033;28;20026;-51
2021/12/13 08:47:15;;;;;;;0.55;0.55;;;21.40;43.30;;;;;;5115962;28;20020;-51
2021/12/13 08:49:50;;;;;;;0.60;0.60;;;21.40;43.20;;;;;;5116101;28;20016;-53
2021/12/13 08:52:16;;;;;;;0.63;0.63;;;21.50;43.20;;;;;;5115661;28;20031;-51
2021/12/13 08:55:02;;;;;;;0.73;0.60;;;21.40;43.20;;;;;;5115867;28;20020;-52
2021/12/13 08:57:46;;;;;;;0.95;0.68;;;21.50;43.20;;;;;;5116070;28;20435;-53
2021/12/13 09:00:36;;;;;;;0.73;0.52;;;21.50;43.20;;;;;;5115734;28;20047;-52
2021/12/13 09:03:16;;;;;;;0.73;0.60;;;21.50;43.20;;;;;;5115434;28;20406;-55
2021/12/13 09:06:03;;;;;;;1.73;0.70;;;21.50;43.20;;;;;;5096754;28;20486;-51
2021/12/13 09:08:34;;;;;;;0.82;0.70;;;21.50;43.20;;;;;;5114854;28;20043;-52
2021/12/13 09:11:18;;;;;;;0.60;0.60;;;21.50;43.20;;;;;;5115486;28;20016;-51
2021/12/13 09:14:07;;;;;;;0.55;0.55;;;21.60;43.20;;;;;;5115274;28;20712;-50
2021/12/13 09:17:10;;;;;;;0.55;0.55;;;21.60;43.20;;;;;;5083335;28;20028;-50
2021/12/13 09:19:48;;;;;;;0.82;0.70;;;21.60;43.30;;;;;;5115888;28;20028;-50
2021/12/13 09:22:27;;;;;;;0.50;0.50;;;21.60;43.30;;;;;;5115941;28;20197;-51
2021/12/13 09:25:09;;;;;;;0.90;0.70;;;21.60;43.20;;;;;;5115136;28;20446;-52
2021/12/13 09:28:02;;;;;;;0.70;0.60;;;21.60;43.30;;;;;;5115527;28;20094;-49
2021/12/13 09:30:36;;;;;;;0.65;0.65;;;21.60;43.30;;;;;;5095766;28;20040;-50
2021/12/13 09:33:21;;;;;;;0.50;0.50;;;21.60;43.30;;;;;;5114748;28;20012;-52
2021/12/13 09:36:10;;;;;;;0.90;0.73;;;21.70;43.30;;;;;;5115275;28;20050;-49
2021/12/13 09:38:55;;;;;;;0.57;0.57;;;21.70;43.20;;;;;;5114098;28;20043;-50
2021/12/13 09:41:29;;;;;;;1.17;0.85;;;21.70;43.30;;;;;;5115089;28;20022;-50
2021/12/13 09:44:05;;;;;;;0.70;0.60;;;21.70;43.20;;;;;;5115085;28;20012;-48
2021/12/13 09:46:57;;;;;;;0.70;0.55;;;21.70;43.20;;;;;;5115542;28;20012;-51
2021/12/13 09:49:45;;;;;;;;;;;21.70;43.20;;;;;;5097598;28;20031;-51
2021/12/13 09:52:29;;;;;;;0.40;0.40;;;21.80;43.20;;;;;;5084021;28;19900;-48
2021/12/13 09:55:15;;;;;;;0.60;0.60;;;21.80;43.30;;;;;;5115187;28;20514;-51
2021/12/13 09:57:49;;;;;;;0.70;0.70;;;21.80;43.20;;;;;;5096195;28;20118;-51
2021/12/13 10:00:35;;;;;;;0.85;0.63;;;21.80;43.20;;;;;;5114640;28;20050;-49
2021/12/13 10:03:03;;;;;;;0.88;0.70;;;21.80;43.20;;;;;;5114571;28;20015;-49
2021/12/13 10:05:34;;;;;;;0.73;0.63;;;21.90;43.20;;;;;;5114506;28;20057;-49
2021/12/13 10:08:12;;;;;;;0.43;0.43;;;21.90;43.20;;;;;;5114532;28;20027;-50
2021/12/13 10:10:45;;;;;;;0.70;0.70;;;21.80;43.30;;;;;;5095856;28;20128;-53
2021/12/13 10:13:15;;;;;;;0.60;0.60;;;21.90;43.20;;;;;;5114200;28;20111;-49
2021/12/13 10:15:44;;;;;;;0.50;0.50;;;21.90;43.20;;;;;;5114530;28;20008;-49
2021/12/13 10:18:15;;;;;;;0.77;0.60;;;21.90;43.20;;;;;;5095810;28;20035;-50
2021/12/13 10:21:02;;;;;;;0.73;0.63;;;21.90;43.20;;;;;;5095891;28;20055;-48
2021/12/13 10:23:34;;;;;;;0.60;0.52;;;22.00;43.80;;;;;;5099535;28;20034;-49
2021/12/13 10:26:01;;;;;;;0.75;0.55;;;22.00;43.10;;;;;;5114191;28;20007;-48
2021/12/13 10:28:30;;;;;;;0.68;0.68;;;22.00;43.10;;;;;;5114343;28;20031;-52
2021/12/13 10:30:59;;;;;;;0.95;0.70;;;22.00;43.10;;;;;;5095642;28;20028;-53
2021/12/13 10:33:27;;;;;;;0.85;0.60;;;22.00;43.10;;;;;;5095412;28;20027;-52
2021/12/13 10:35:55;;;;;;;0.88;0.63;;;22.00;43.10;;;;;;5095837;28;20034;-51
2021/12/13 10:38:30;;;;;;;0.60;0.60;;;22.00;43.10;;;;;;5113711;28;20019;-49
2021/12/13 10:41:05;;;;;;;0.70;0.70;;;22.00;43.20;;;;;;5095439;28;20474;-53
2021/12/13 10:43:34;;;;;;;1.13;0.70;;;22.00;43.20;;;;;;5113705;28;20091;-50
2021/12/13 10:46:11;;;;;;;0.50;0.50;;;22.00;43.20;;;;;;5095239;28;20015;-52
2021/12/13 10:48:44;;;;;;;0.45;0.45;;;22.00;43.20;;;;;;5113714;28;20023;-50
2021/12/13 10:51:12;;;;;;;1.60;0.52;;;22.10;43.20;;;;;;5112413;28;20092;-50
2021/12/13 10:53:40;;;;;;;0.80;0.60;;;22.10;43.20;;;;;;5113644;28;20119;-50
2021/12/13 10:56:09;;;;;;;0.60;0.60;;;22.10;43.20;;;;;;5113700;28;20015;-49
2021/12/13 10:58:42;;;;;;;0.98;0.65;;;22.10;43.20;;;;;;5113087;28;20030;-50
2021/12/13 11:01:17;;;;;;;0.60;0.60;;;22.10;43.10;;;;;;5113460;28;20008;-55
2021/12/13 11:03:43;;;;;;;0.93;0.70;;;22.20;43.10;;;;;;5113814;28;20023;-53
2021/12/13 11:06:09;;;;;;;0.60;0.50;;;22.20;43.20;;;;;;5114127;28;20077;-54
2021/12/13 11:08:41;;;;;;;0.68;0.68;;;22.20;43.20;;;;;;5114122;28;20054;-54
2021/12/13 11:11:13;;;;;;;0.80;0.70;;;22.20;43.20;;;;;;5114341;28;20027;-52
2021/12/13 11:13:39;;;;;;;1.88;0.60;;;22.20;43.10;;;;;;5113914;28;20027;-55
2021/12/13 11:16:20;;;;;;;0.90;0.60;;;22.20;43.20;;;;;;5095832;28;20011;-54
2021/12/13 11:18:47;;;;;;;0.50;0.50;;;22.20;43.20;;;;;;5113743;28;20033;-54
2021/12/13 11:21:26;;;;;;;0.77;0.60;;;22.20;43.10;;;;;;5114152;28;20016;-52
2021/12/13 11:23:52;;;;;;;0.70;0.60;;;22.20;43.10;;;;;;5113759;28;20067;-54
2021/12/13 11:26:20;;;;;;;0.85;0.65;;;22.20;43.20;;;;;;5113966;28;20016;-51
2021/12/13 11:28:47;;;;;;;0.57;0.50;;;22.20;43.10;;;;;;5113688;28;20020;-55
2021/12/13 11:31:32;;;;;;;0.60;0.60;;;22.20;43.10;;;;;;5114168;28;20015;-52
2021/12/13 11:34:04;;;;;;;1.10;0.60;;;22.30;43.20;;;;;;5113687;28;20053;-51
2021/12/13 11:36:43;;;;;;;1.25;0.77;;;22.20;43.20;;;;;;5114063;28;20024;-54
2021/12/13 11:39:43;;;;;;;0.60;0.60;;;22.30;43.20;;;;;;5113668;28;20032;-55
2021/12/13 11:42:46;;;;;;;0.73;0.65;;;22.30;43.20;;;;;;5113570;28;20022;-58
2021/12/13 11:45:41;;;;;;;0.65;0.65;;;22.30;43.20;;;;;;5113405;28;20020;-57
2021/12/13 11:48:12;;;;;;;0.68;0.60;;;22.30;43.20;;;;;;5095054;28;20141;-57
2021/12/13 11:50:56;;;;;;;;;;;22.30;43.20;;;;;;5113639;28;20026;-56
2021/12/13 11:53:43;;;;;;;0.50;0.50;;;22.30;43.20;;;;;;5113722;28;19900;-57
2021/12/13 11:56:17;;;;;;;0.90;0.60;;;22.30;43.80;;;;;;5113592;28;20145;-56
2021/12/13 11:58:55;;;;;;;0.65;0.57;;;22.30;43.20;;;;;;5095039;28;20027;-57
2021/12/13 12:01:43;;;;;;;0.80;0.60;;;22.30;43.30;;;;;;5096592;28;20012;-56
2021/12/13 12:04:46;;;;;;;1.20;0.70;;;22.40;43.20;;;;;;5113700;28;20043;-57
2021/12/13 12:07:33;;;;;;;1.08;0.80;;;22.40;43.20;;;;;;5113462;28;20026;-57
2021/12/13 12:10:09;;;;;;;0.77;0.77;;;22.40;43.20;;;;;;5113163;28;20048;-57
2021/12/13 12:12:59;;;;;;;1.27;0.63;;;22.40;43.20;;;;;;5113464;28;20028;-57
2021/12/13 12:15:26;;;;;;;0.73;0.70;;;22.40;43.20;;;;;;5094891;28;20030;-58
2021/12/13 12:17:53;;;;;;;0.60;0.60;;;22.40;43.20;;;;;;5113065;28;20295;-57
2021/12/13 12:20:32;;;;;;;2.15;0.80;;;22.40;43.20;;;;;;5113097;28;20019;-58
2021/12/13 12:23:06;;;;;;;0.75;0.68;;;22.40;43.20;;;;;;5113086;28;20016;-58
2021/12/13 12:25:33;;;;;;;0.75;0.65;;;22.40;43.20;;;;;;5095127;28;20015;-59
2021/12/13 12:28:14;;;;;;;0.55;0.47;;;22.40;43.20;;;;;;5095061;28;20027;-59
2021/12/13 12:30:42;;;;;;;0.77;0.60;;;22.50;43.20;;;;;;5113407;28;20014;-61
2021/12/13 12:33:11;;;;;;;1.17;0.60;;;22.50;43.20;;;;;;5094854;28;20011;-58
2021/12/13 12:35:40;;;;;;;0.88;0.68;;;22.50;43.20;;;;;;5095553;28;20020;-58
2021/12/13 12:38:34;;;;;;;0.70;0.60;;;22.50;43.20;;;;;;5112938;28;20034;-57
2021/12/13 12:41:12;;;;;;;0.90;0.70;;;22.50;43.20;;;;;;5113225;28;20036;-58
2021/12/13 12:43:41;;;;;;;0.60;0.60;;;22.50;43.20;;;;;;5113038;28;20091;-58
2021/12/13 12:46:10;;;;;;;0.50;0.50;;;22.50;43.20;;;;;;5112841;28;20473;-58
2021/12/13 12:48:43;;;;;;;0.40;0.40;;;22.50;43.20;;;;;;5112853;28;20011;-60
2021/12/13 12:51:19;;;;;;;1.13;0.80;;;22.50;43.20;;;;;;5113227;28;20045;-58
2021/12/13 12:53:52;;;;;;;0.73;0.73;;;22.60;43.20;;;;;;5113091;28;20023;-58
2021/12/13 12:56:45;;;;;;;0.60;0.60;;;22.60;43.20;;;;;;5113114;28;20016;-59
2021/12/13 12:59:13;;;;;;;0.50;0.50;;;22.60;43.20;;;;;;5109127;28;20036;-61
2021/12/13 13:01:59;;;;;;;0.52;0.52;;;22.60;43.20;;;;;;5112800;28;20019;-58
2021/12/13 13:04:54;;;;;;;1.20;0.73;;;22.60;43.20;;;;;;5112724;28;20016;-58
2021/12/13 13:07:27;;;;;;;0.82;0.80;;;22.60;43.20;;;;;;5110807;28;20031;-61
2021/12/13 13:09:58;;;;;;;1.20;0.60;;;22.60;43.20;;;;;;5112557;28;20047;-58
2021/12/13 13:12:34;;;;;;;0.88;0.60;;;22.60;43.20;;;;;;5112677;28;20036;-58
2021/12/13 13:15:47;;;;;;;0.80;0.77;;;22.70;43.10;;;;;;5115151;28;20026;-58
2021/12/13 13:18:15;;;;;;;0.88;0.70;;;22.60;43.10;;;;;;5116659;28;20051;-58
2021/12/13 13:20:45;;;;;;;0.60;0.60;;;22.70;43.10;;;;;;5116572;28;20037;-58
2021/12/13 13:23:11;;;;;;;0.50;0.50;;;22.70;43.10;;;;;;5116580;28;20012;-58
2021/12/13 13:25:44;;;;;;;1.17;0.70;;;22.70;43.10;;;;;;5116133;28;20019;-58
2021/12/13 13:28:27;;;;;;;1.20;0.70;;;22.70;43.10;;;;;;5116232;28;20012;-58
2021/12/13 13:30:59;;;;;;;0.70;0.60;;;22.70;43.10;;;;;;5116102;28;20042;-58
2021/12/13 13:33:37;;;;;;;0.50;0.50;;;22.70;43.10;;;;;;5116112;28;20020;-57
2021/12/13 13:36:04;;;;;;;0.75;0.70;;;22.70;43.10;;;;;;5097831;28;20377;-57